Time;durP1;ratioP1;P1;durP2;ratioP2;P2;SDS_P1;SDS_P2;PMS_P1;PMS_P2;Temp;Humidity;BMP_temperature;BMP_pressure;BME280_temperature;BME280_humidity;BME280_pressure;Samples;Min_cycle;Max_cycle;Signal;HPM_P1;HPM_P2
2021/11/22 00:00:15;;;;;;;;;;;;;;;;;;1877746;28;7308;-65
2021/11/22 00:01:13;;;;;;;;;;;;;;;;;;1869230;29;8381;-64
2021/11/22 00:02:10;;;;;;;;;;;;;;;;;;1877542;28;7101;-66
2021/11/22 00:03:08;;;;;;;;;;;;;;;;;;1877941;28;8032;-64
2021/11/22 00:04:06;;;;;;;;;;;;;;;;;;1881845;28;7320;-65
2021/11/22 00:05:04;;;;;;;;;;;;;;;;;;1878436;28;7313;-64
2021/11/22 00:06:01;;;;;;;;;;;;;;;;;;1878056;28;7029;-65
2021/11/22 00:06:59;;;;;;;;;;;;;;;;;;1877623;28;7013;-65
2021/11/22 00:07:57;;;;;;;;;;;;;;;;;;1877865;28;7364;-65
2021/11/22 00:08:54;;;;;;;;;;;;;;;;;;1877546;28;7009;-65
2021/11/22 00:09:52;;;;;;;;;;;;;;;;;;1877799;28;7014;-65
2021/11/22 00:10:50;;;;;;;;;;;;;;;;;;1876764;28;7097;-65
2021/11/22 00:11:49;;;;;;;;;;;;;;;;;;1876778;28;7160;-65
2021/11/22 00:12:47;;;;;;;;;;;;;;;;;;1876533;28;8052;-66
2021/11/22 00:13:44;;;;;;;;;;;;;;;;;;1876723;28;7006;-64
2021/11/22 00:14:42;;;;;;;;;;;;;;;;;;1876395;28;7042;-65
2021/11/22 00:15:39;;;;;;;;;;;;;;;;;;1876264;28;7037;-65
2021/11/22 00:16:37;;;;;;;;;;;;;;;;;;1876272;28;7093;-65
2021/11/22 00:17:35;;;;;;;;;;;;;;;;;;1878280;28;7006;-66
2021/11/22 00:18:32;;;;;;;;;;;;;;;;;;1883947;28;7129;-65
2021/11/22 00:19:34;;;;;;;;;;;;;;;;;;1876054;28;7010;-64
2021/11/22 00:20:32;;;;;;;;;;;;;;;;;;1878323;28;7952;-65
2021/11/22 00:21:29;;;;;;;;;;;;;;;;;;1882398;28;7360;-65
2021/11/22 00:22:27;;;;;;;;;;;;;;;;;;1883194;28;7027;-65
2021/11/22 00:23:25;;;;;;;;;;;;;;;;;;1883512;28;7093;-65
2021/11/22 00:24:22;;;;;;;;;;;;;;;;;;1882882;28;7131;-65
2021/11/22 00:25:20;;;;;;;;;;;;;;;;;;1874756;28;7022;-65
2021/11/22 00:26:18;;;;;;;;;;;;;;;;;;1876580;28;7097;-65
2021/11/22 00:27:15;;;;;;;;;;;;;;;;;;1876260;28;7097;-65
2021/11/22 00:28:13;;;;;;;;;;;;;;;;;;1876049;28;7042;-65
2021/11/22 00:29:10;;;;;;;;;;;;;;;;;;1876213;28;7148;-65
2021/11/22 00:30:08;;;;;;;;;;;;;;;;;;1876407;28;7428;-65
2021/11/22 00:31:06;;;;;;;;;;;;;;;;;;1876506;28;7118;-64
2021/11/22 00:32:05;;;;;;;;;;;;;;;;;;1875816;28;7089;-65
2021/11/22 00:33:03;;;;;;;;;;;;;;;;;;1875598;28;7030;-66
2021/11/22 00:34:01;;;;;;;;;;;;;;;;;;1882394;28;7014;-65
2021/11/22 00:34:59;;;;;;;;;;;;;;;;;;1879204;28;8111;-65
2021/11/22 00:35:57;;;;;;;;;;;;;;;;;;1876410;28;7129;-66
2021/11/22 00:36:54;;;;;;;;;;;;;;;;;;1876543;28;7027;-65
2021/11/22 00:37:52;;;;;;;;;;;;;;;;;;1876249;28;7317;-65
2021/11/22 00:38:49;;;;;;;;;;;;;;;;;;1874321;28;7132;-65
2021/11/22 00:39:47;;;;;;;;;;;;;;;;;;1881557;28;7152;-65
2021/11/22 00:40:44;;;;;;;;;;;;;;;;;;1881098;28;7092;-65
2021/11/22 00:41:42;;;;;;;;;;;;;;;;;;1883544;28;8039;-65
2021/11/22 00:42:42;;;;;;;;;;;;;;;;;;1882545;28;7138;-65
2021/11/22 00:43:40;;;;;;;;;;;;;;;;;;1883077;28;7300;-65
2021/11/22 00:44:38;;;;;;;;;;;;;;;;;;1883291;28;8104;-65
2021/11/22 00:45:36;;;;;;;;;;;;;;;;;;1879557;28;7297;-65
2021/11/22 00:46:33;;;;;;;;;;;;;;;;;;1876406;28;7038;-66
2021/11/22 00:47:33;;;;;;;;;;;;;;;;;;1876754;28;7113;-64
2021/11/22 00:48:31;;;;;;;;;;;;;;;;;;1876492;28;7034;-65
2021/11/22 00:49:29;;;;;;;;;;;;;;;;;;1876315;28;7109;-65
2021/11/22 00:50:27;;;;;;;;;;;;;;;;;;1877360;28;8160;-64
2021/11/22 00:51:24;;;;;;;;;;;;;;;;;;1883805;28;7096;-65
2021/11/22 00:52:22;;;;;;;;;;;;;;;;;;1883493;28;7018;-65
2021/11/22 00:53:20;;;;;;;;;;;;;;;;;;1884061;28;7085;-65
2021/11/22 00:54:17;;;;;;;;;;;;;;;;;;1883149;28;7038;-65
2021/11/22 00:55:15;;;;;;;;;;;;;;;;;;1883991;28;7050;-65
2021/11/22 00:56:16;;;;;;;;;;;;;;;;;;1883725;28;7151;-65
2021/11/22 00:57:14;;;;;;;;;;;;;;;;;;1875621;28;7049;-65
2021/11/22 00:58:11;;;;;;;;;;;;;;;;;;1875703;28;7325;-65
2021/11/22 00:59:10;;;;;;;;;;;;;;;;;;1879967;28;7177;-65
2021/11/22 01:00:10;;;;;;;;;;;;;;;;;;1877424;28;7058;-65
2021/11/22 01:01:07;;;;;;;;;;;;;;;;;;1876083;28;7130;-65
2021/11/22 01:02:05;;;;;;;;;;;;;;;;;;1875316;28;7034;-65
2021/11/22 01:03:03;;;;;;;;;;;;;;;;;;1876570;28;7025;-64
2021/11/22 01:04:01;;;;;;;;;;;;;;;;;;1876603;28;7577;-65
2021/11/22 01:04:58;;;;;;;;;;;;;;;;;;1875276;28;7010;-65
2021/11/22 01:05:55;;;;;;;;;;;;;;;;;;1874860;28;7006;-64
2021/11/22 01:06:53;;;;;;;;;;;;;;;;;;1875892;28;7022;-65
2021/11/22 01:07:50;;;;;;;;;;;;;;;;;;1876037;28;7097;-65
2021/11/22 01:08:48;;;;;;;;;;;;;;;;;;1876311;28;8044;-65
2021/11/22 01:09:45;;;;;;;;;;;;;;;;;;1876818;28;7010;-65
2021/11/22 01:10:44;;;;;;;;;;;;;;;;;;1875161;28;7122;-65
2021/11/22 01:11:41;;;;;;;;;;;;;;;;;;1876006;28;7046;-66
2021/11/22 01:12:39;;;;;;;;;;;;;;;;;;1875568;28;7031;-65
2021/11/22 01:13:36;;;;;;;;;;;;;;;;;;1878909;28;7029;-65
2021/11/22 01:14:36;;;;;;;;;;;;;;;;;;1874418;28;7082;-65
2021/11/22 01:15:34;;;;;;;;;;;;;;;;;;1875636;28;7034;-65
2021/11/22 01:16:32;;;;;;;;;;;;;;;;;;1876044;28;7039;-65
2021/11/22 01:17:30;;;;;;;;;;;;;;;;;;1877306;28;7389;-65
2021/11/22 01:18:27;;;;;;;;;;;;;;;;;;1883115;28;7010;-65
2021/11/22 01:19:24;;;;;;;;;;;;;;;;;;1882484;28;7010;-64
2021/11/22 01:20:28;;;;;;;;;;;;;;;;;;1879196;28;7093;-65
2021/11/22 01:21:26;;;;;;;;;;;;;;;;;;1881821;28;7026;-65
2021/11/22 01:22:24;;;;;;;;;;;;;;;;;;1876016;28;7092;-65
2021/11/22 01:23:22;;;;;;;;;;;;;;;;;;1882676;28;8036;-64
2021/11/22 01:24:20;;;;;;;;;;;;;;;;;;1883084;28;7006;-65
2021/11/22 01:25:17;;;;;;;;;;;;;;;;;;1874550;28;7192;-66
2021/11/22 01:26:16;;;;;;;;;;;;;;;;;;1867340;29;7026;-65
2021/11/22 01:27:14;;;;;;;;;;;;;;;;;;1868642;29;7006;-65
2021/11/22 01:28:11;;;;;;;;;;;;;;;;;;1874876;28;7002;-65
2021/11/22 01:29:09;;;;;;;;;;;;;;;;;;1875223;28;7034;-65
2021/11/22 01:30:10;;;;;;;;;;;;;;;;;;1882306;28;7112;-65
2021/11/22 01:31:07;;;;;;;;;;;;;;;;;;1883304;28;7726;-65
2021/11/22 01:32:05;;;;;;;;;;;;;;;;;;1882274;28;7097;-65
2021/11/22 01:33:03;;;;;;;;;;;;;;;;;;1875323;28;7496;-65
2021/11/22 01:34:00;;;;;;;;;;;;;;;;;;1875489;28;7010;-65
2021/11/22 01:34:57;;;;;;;;;;;;;;;;;;1876012;28;7126;-66
2021/11/22 01:35:55;;;;;;;;;;;;;;;;;;1876508;28;7038;-65
2021/11/22 01:36:52;;;;;;;;;;;;;;;;;;1875705;28;7047;-64
2021/11/22 01:37:50;;;;;;;;;;;;;;;;;;1876261;28;7097;-65
2021/11/22 01:38:47;;;;;;;;;;;;;;;;;;1874858;28;7129;-65
2021/11/22 01:39:45;;;;;;;;;;;;;;;;;;1876259;28;8052;-65
2021/11/22 01:40:44;;;;;;;;;;;;;;;;;;1875887;28;7010;-66
2021/11/22 01:41:41;;;;;;;;;;;;;;;;;;1875919;28;8514;-64
2021/11/22 01:42:41;;;;;;;;;;;;;;;;;;1876359;28;7006;-65
2021/11/22 01:43:38;;;;;;;;;;;;;;;;;;1878758;28;7317;-65
2021/11/22 01:44:35;;;;;;;;;;;;;;;;;;1883468;28;7313;-66
2021/11/22 01:45:34;;;;;;;;;;;;;;;;;;1883893;28;7018;-65
2021/11/22 01:46:32;;;;;;;;;;;;;;;;;;1883123;28;7101;-65
2021/11/22 01:47:29;;;;;;;;;;;;;;;;;;1874787;28;7218;-64
2021/11/22 01:48:27;;;;;;;;;;;;;;;;;;1875916;28;7042;-65
2021/11/22 01:49:24;;;;;;;;;;;;;;;;;;1875824;28;7141;-65
2021/11/22 01:50:22;;;;;;;;;;;;;;;;;;1876458;28;8960;-65
2021/11/22 01:51:19;;;;;;;;;;;;;;;;;;1883283;28;7018;-65
2021/11/22 01:52:17;;;;;;;;;;;;;;;;;;1883825;28;7139;-65
2021/11/22 01:53:15;;;;;;;;;;;;;;;;;;1883258;28;8047;-65
2021/11/22 01:54:16;;;;;;;;;;;;;;;;;;1874357;28;7010;-64
2021/11/22 01:55:17;;;;;;;;;;;;;;;;;;1877759;28;7033;-65
2021/11/22 01:56:15;;;;;;;;;;;;;;;;;;1876970;28;7006;-64
2021/11/22 01:57:12;;;;;;;;;;;;;;;;;;1875366;28;8003;-65
2021/11/22 01:58:11;;;;;;;;;;;;;;;;;;1875558;28;7010;-64
2021/11/22 01:59:08;;;;;;;;;;;;;;;;;;1875178;28;7093;-65
2021/11/22 02:00:09;;;;;;;;;;;;;;;;;;1876489;28;7038;-65
2021/11/22 02:01:06;;;;;;;;;;;;;;;;;;1876393;28;7014;-65
2021/11/22 02:02:04;;;;;;;;;;;;;;;;;;1875671;28;8221;-66
2021/11/22 02:03:03;;;;;;;;;;;;;;;;;;1874544;28;7093;-65
2021/11/22 02:04:01;;;;;;;;;;;;;;;;;;1875398;28;7093;-65
2021/11/22 02:04:58;;;;;;;;;;;;;;;;;;1875560;28;7022;-65
2021/11/22 02:05:56;;;;;;;;;;;;;;;;;;1875370;28;7344;-65
2021/11/22 02:06:53;;;;;;;;;;;;;;;;;;1875464;28;7269;-65
2021/11/22 02:07:51;;;;;;;;;;;;;;;;;;1875829;28;7063;-65
2021/11/22 02:08:50;;;;;;;;;;;;;;;;;;1875643;28;7325;-64
2021/11/22 02:09:48;;;;;;;;;;;;;;;;;;1874409;28;7053;-64
2021/11/22 02:10:46;;;;;;;;;;;;;;;;;;1875333;28;7381;-65
2021/11/22 02:11:44;;;;;;;;;;;;;;;;;;1875010;28;7010;-65
2021/11/22 02:12:41;;;;;;;;;;;;;;;;;;1874658;28;7030;-66
2021/11/22 02:13:41;;;;;;;;;;;;;;;;;;1869917;28;7154;-65
2021/11/22 02:14:38;;;;;;;;;;;;;;;;;;1868203;28;7046;-65
2021/11/22 02:15:36;;;;;;;;;;;;;;;;;;1873198;28;7321;-65
2021/11/22 02:16:34;;;;;;;;;;;;;;;;;;1874934;28;7006;-65
2021/11/22 02:17:36;;;;;;;;;;;;;;;;;;1875227;28;7046;-65
2021/11/22 02:18:33;;;;;;;;;;;;;;;;;;1875047;28;7013;-64
2021/11/22 02:19:35;;;;;;;;;;;;;;;;;;1874797;28;7110;-65
2021/11/22 02:20:33;;;;;;;;;;;;;;;;;;1874681;28;7152;-65
2021/11/22 02:21:30;;;;;;;;;;;;;;;;;;1874934;28;7146;-65
2021/11/22 02:22:31;;;;;;;;;;;;;;;;;;1874921;28;7308;-65
2021/11/22 02:23:29;;;;;;;;;;;;;;;;;;1876892;28;8112;-65
2021/11/22 02:24:26;;;;;;;;;;;;;;;;;;1873107;28;7030;-65
2021/11/22 02:25:25;;;;;;;;;;;;;;;;;;1868195;28;7018;-65
2021/11/22 02:26:23;;;;;;;;;;;;;;;;;;1867435;28;7018;-64
2021/11/22 02:27:20;;;;;;;;;;;;;;;;;;1874265;28;7137;-65
2021/11/22 02:28:18;;;;;;;;;;;;;;;;;;1874616;28;7014;-65
2021/11/22 02:29:15;;;;;;;;;;;;;;;;;;1865635;29;7054;-65
2021/11/22 02:30:14;;;;;;;;;;;;;;;;;;1875693;28;7014;-64
2021/11/22 02:31:12;;;;;;;;;;;;;;;;;;1875471;28;7037;-64
2021/11/22 02:32:10;;;;;;;;;;;;;;;;;;1874840;28;7093;-65
2021/11/22 02:33:09;;;;;;;;;;;;;;;;;;1873965;28;7117;-65
2021/11/22 02:34:07;;;;;;;;;;;;;;;;;;1874924;28;7030;-65
2021/11/22 02:35:06;;;;;;;;;;;;;;;;;;1875717;28;7062;-65
2021/11/22 02:36:04;;;;;;;;;;;;;;;;;;1875385;28;7050;-64
2021/11/22 02:37:02;;;;;;;;;;;;;;;;;;1874960;28;7001;-65
2021/11/22 02:38:00;;;;;;;;;;;;;;;;;;1875829;28;7261;-64
2021/11/22 02:38:57;;;;;;;;;;;;;;;;;;1875292;28;7093;-65
2021/11/22 02:39:55;;;;;;;;;;;;;;;;;;1872086;28;7038;-65
2021/11/22 02:40:53;;;;;;;;;;;;;;;;;;1874361;28;7006;-65
2021/11/22 02:41:51;;;;;;;;;;;;;;;;;;1875003;28;7148;-64
2021/11/22 02:42:48;;;;;;;;;;;;;;;;;;1874982;28;7137;-65
2021/11/22 02:43:46;;;;;;;;;;;;;;;;;;1875274;28;7105;-65
2021/11/22 02:44:44;;;;;;;;;;;;;;;;;;1875721;28;7230;-64
2021/11/22 02:45:42;;;;;;;;;;;;;;;;;;1874983;28;7125;-65
2021/11/22 02:46:39;;;;;;;;;;;;;;;;;;1875227;28;7010;-66
2021/11/22 02:47:37;;;;;;;;;;;;;;;;;;1874800;28;7072;-65
2021/11/22 02:48:35;;;;;;;;;;;;;;;;;;1875272;28;7014;-65
2021/11/22 02:49:33;;;;;;;;;;;;;;;;;;1875440;28;7006;-65
2021/11/22 02:50:30;;;;;;;;;;;;;;;;;;1875317;28;7221;-64
2021/11/22 02:51:27;;;;;;;;;;;;;;;;;;1876078;28;7010;-64
2021/11/22 02:52:25;;;;;;;;;;;;;;;;;;1875476;28;7010;-65
2021/11/22 02:53:24;;;;;;;;;;;;;;;;;;1874039;28;8028;-65
2021/11/22 02:54:21;;;;;;;;;;;;;;;;;;1874892;28;7502;-64
2021/11/22 02:55:20;;;;;;;;;;;;;;;;;;1875028;28;7376;-64
2021/11/22 02:56:17;;;;;;;;;;;;;;;;;;1875058;28;7109;-65
2021/11/22 02:57:15;;;;;;;;;;;;;;;;;;1874675;29;7120;-65
2021/11/22 02:58:12;;;;;;;;;;;;;;;;;;1875209;29;7006;-64
2021/11/22 02:59:10;;;;;;;;;;;;;;;;;;1875578;29;8003;-64
2021/11/22 03:00:14;;;;;;;;;;;;;;;;;;1875128;29;7352;-65
2021/11/22 03:01:11;;;;;;;;;;;;;;;;;;1874671;29;7006;-65
2021/11/22 03:02:11;;;;;;;;;;;;;;;;;;1874938;29;7009;-65
2021/11/22 03:03:09;;;;;;;;;;;;;;;;;;1874289;29;7139;-65
2021/11/22 03:04:07;;;;;;;;;;;;;;;;;;1875063;29;7006;-65
2021/11/22 03:05:05;;;;;;;;;;;;;;;;;;1875261;29;7014;-65
2021/11/22 03:06:10;;;;;;;;;;;;;;;;;;1874047;29;7786;-64
2021/11/22 03:07:09;;;;;;;;;;;;;;;;;;1874685;29;7321;-64
2021/11/22 03:08:07;;;;;;;;;;;;;;;;;;1875635;29;7097;-65
2021/11/22 03:09:05;;;;;;;;;;;;;;;;;;1875487;29;8925;-65
2021/11/22 03:10:06;;;;;;;;;;;;;;;;;;1875320;29;7010;-65
2021/11/22 03:11:04;;;;;;;;;;;;;;;;;;1874893;29;7116;-64
2021/11/22 03:12:05;;;;;;;;;;;;;;;;;;1873074;29;7010;-65
2021/11/22 03:13:05;;;;;;;;;;;;;;;;;;1874003;29;7030;-65
2021/11/22 03:14:02;;;;;;;;;;;;;;;;;;1874884;29;7025;-64
2021/11/22 03:15:04;;;;;;;;;;;;;;;;;;1874415;29;7048;-65
2021/11/22 03:16:02;;;;;;;;;;;;;;;;;;1875201;29;7271;-65
2021/11/22 03:17:00;;;;;;;;;;;;;;;;;;1874841;29;7010;-65
2021/11/22 03:17:59;;;;;;;;;;;;;;;;;;1874718;29;7010;-65
2021/11/22 03:18:57;;;;;;;;;;;;;;;;;;1874241;29;7050;-66
2021/11/22 03:19:54;;;;;;;;;;;;;;;;;;1876081;28;7365;-64
2021/11/22 03:20:52;;;;;;;;;;;;;;;;;;1873786;29;7002;-64
2021/11/22 03:21:51;;;;;;;;;;;;;;;;;;1873523;29;7014;-65
2021/11/22 03:22:50;;;;;;;;;;;;;;;;;;1873787;29;8054;-66
2021/11/22 03:23:47;;;;;;;;;;;;;;;;;;1877063;28;7074;-65
2021/11/22 03:24:45;;;;;;;;;;;;;;;;;;1882814;28;7096;-65
2021/11/22 03:25:42;;;;;;;;;;;;;;;;;;1883380;28;7266;-65
2021/11/22 03:26:40;;;;;;;;;;;;;;;;;;1882167;28;7002;-65
2021/11/22 03:27:39;;;;;;;;;;;;;;;;;;1882966;28;7309;-65
2021/11/22 03:28:37;;;;;;;;;;;;;;;;;;1882213;28;7018;-66
2021/11/22 03:29:34;;;;;;;;;;;;;;;;;;1882601;28;7105;-65
2021/11/22 03:30:32;;;;;;;;;;;;;;;;;;1882375;28;7006;-65
2021/11/22 03:31:32;;;;;;;;;;;;;;;;;;1879777;28;8586;-64
2021/11/22 03:32:29;;;;;;;;;;;;;;;;;;1881795;28;7038;-64
2021/11/22 03:33:27;;;;;;;;;;;;;;;;;;1881827;28;7005;-65
2021/11/22 03:34:26;;;;;;;;;;;;;;;;;;1882043;28;7021;-65
2021/11/22 03:35:23;;;;;;;;;;;;;;;;;;1882477;28;7010;-65
2021/11/22 03:36:21;;;;;;;;;;;;;;;;;;1883041;28;7013;-64
2021/11/22 03:37:18;;;;;;;;;;;;;;;;;;1882850;28;8114;-65
2021/11/22 03:38:16;;;;;;;;;;;;;;;;;;1883087;28;7146;-65
2021/11/22 03:39:25;;;;;;;;;;;;;;;;;;1874977;29;7109;-65
2021/11/22 03:40:22;;;;;;;;;;;;;;;;;;1875540;28;7006;-66
2021/11/22 03:41:20;;;;;;;;;;;;;;;;;;1880609;28;7097;-65
2021/11/22 03:42:18;;;;;;;;;;;;;;;;;;1882948;28;7092;-65
2021/11/22 03:43:55;;;;;;;;;;;;;;;;;;1882053;28;7096;-64
2021/11/22 03:44:39;;;;;;;;;;;;;;;;;;1879075;28;8042;-65
2021/11/22 03:45:38;;;;;;;;;;;;;;;;;;1882441;28;7101;-64
2021/11/22 03:46:37;;;;;;;;;;;;;;;;;;1883923;28;7118;-64
2021/11/22 03:47:35;;;;;;;;;;;;;;;;;;1883479;28;7002;-64
2021/11/22 03:48:33;;;;;;;;;;;;;;;;;;1883558;28;7010;-65
2021/11/22 03:49:33;;;;;;;;;;;;;;;;;;1884686;28;7014;-65
2021/11/22 03:50:31;;;;;;;;;;;;;;;;;;1884232;28;7062;-65
2021/11/22 03:51:29;;;;;;;;;;;;;;;;;;1883635;28;7135;-65
2021/11/22 03:52:26;;;;;;;;;;;;;;;;;;1883138;28;7035;-64
2021/11/22 03:53:24;;;;;;;;;;;;;;;;;;1883928;28;7093;-65
2021/11/22 03:54:21;;;;;;;;;;;;;;;;;;1876760;28;7151;-65
2021/11/22 03:55:19;;;;;;;;;;;;;;;;;;1884053;28;8115;-66
2021/11/22 03:56:16;;;;;;;;;;;;;;;;;;1884100;28;7158;-66
2021/11/22 03:57:14;;;;;;;;;;;;;;;;;;1885781;28;7010;-65
2021/11/22 03:58:11;;;;;;;;;;;;;;;;;;1883850;28;7406;-64
2021/11/22 03:59:10;;;;;;;;;;;;;;;;;;1884229;28;7090;-65
2021/11/22 04:00:08;;;;;;;;;;;;;;;;;;1883646;28;7130;-64
2021/11/22 04:01:05;;;;;;;;;;;;;;;;;;1883637;28;7096;-65
2021/11/22 04:02:03;;;;;;;;;;;;;;;;;;1882395;28;7018;-65
2021/11/22 04:03:01;;;;;;;;;;;;;;;;;;1883469;28;7006;-65
2021/11/22 04:03:59;;;;;;;;;;;;;;;;;;1884088;28;7336;-65
2021/11/22 04:04:57;;;;;;;;;;;;;;;;;;1883993;28;7009;-65
2021/11/22 04:05:54;;;;;;;;;;;;;;;;;;1883728;28;8119;-65
2021/11/22 04:06:52;;;;;;;;;;;;;;;;;;1883602;28;7006;-65
2021/11/22 04:07:49;;;;;;;;;;;;;;;;;;1883725;28;7006;-65
2021/11/22 04:08:47;;;;;;;;;;;;;;;;;;1881921;28;7117;-65
2021/11/22 04:09:44;;;;;;;;;;;;;;;;;;1883719;28;7054;-64
2021/11/22 04:10:42;;;;;;;;;;;;;;;;;;1884204;28;7320;-65
2021/11/22 04:11:39;;;;;;;;;;;;;;;;;;1883608;28;7005;-65
2021/11/22 04:12:37;;;;;;;;;;;;;;;;;;1883215;28;7101;-65
2021/11/22 04:13:34;;;;;;;;;;;;;;;;;;1877460;28;7877;-65
2021/11/22 04:14:32;;;;;;;;;;;;;;;;;;1877555;28;7082;-65
2021/11/22 04:15:29;;;;;;;;;;;;;;;;;;1881848;28;7384;-65
2021/11/22 04:16:27;;;;;;;;;;;;;;;;;;1881503;28;7014;-66
2021/11/22 04:17:24;;;;;;;;;;;;;;;;;;1878086;28;7026;-65
2021/11/22 04:18:22;;;;;;;;;;;;;;;;;;1878798;28;7010;-65
2021/11/22 04:19:19;;;;;;;;;;;;;;;;;;1872788;28;7152;-65
2021/11/22 04:20:17;;;;;;;;;;;;;;;;;;1877331;28;8016;-65
2021/11/22 04:21:15;;;;;;;;;;;;;;;;;;1870888;28;7038;-65
2021/11/22 04:22:13;;;;;;;;;;;;;;;;;;1878903;28;7109;-65
2021/11/22 04:23:11;;;;;;;;;;;;;;;;;;1878564;28;7089;-65
2021/11/22 04:24:09;;;;;;;;;;;;;;;;;;1878947;28;7254;-65
2021/11/22 04:25:07;;;;;;;;;;;;;;;;;;1877388;28;7046;-65
2021/11/22 04:26:08;;;;;;;;;;;;;;;;;;1878098;28;7009;-66
2021/11/22 04:27:09;;;;;;;;;;;;;;;;;;1879661;28;7014;-65
2021/11/22 04:28:07;;;;;;;;;;;;;;;;;;1874926;28;7010;-64
2021/11/22 04:29:04;;;;;;;;;;;;;;;;;;1879097;28;7010;-64
2021/11/22 04:30:05;;;;;;;;;;;;;;;;;;1877950;28;7018;-65
2021/11/22 04:31:03;;;;;;;;;;;;;;;;;;1879105;28;7017;-65
2021/11/22 04:32:00;;;;;;;;;;;;;;;;;;1880232;28;7006;-64
2021/11/22 04:32:58;;;;;;;;;;;;;;;;;;1879419;28;7013;-65
2021/11/22 04:33:55;;;;;;;;;;;;;;;;;;1874267;28;7622;-65
2021/11/22 04:34:53;;;;;;;;;;;;;;;;;;1877201;28;7010;-65
2021/11/22 04:35:50;;;;;;;;;;;;;;;;;;1878310;28;8017;-65
2021/11/22 04:36:48;;;;;;;;;;;;;;;;;;1875306;28;7010;-64
2021/11/22 04:37:45;;;;;;;;;;;;;;;;;;1877121;28;8435;-65
2021/11/22 04:38:43;;;;;;;;;;;;;;;;;;1874814;28;7113;-65
2021/11/22 04:39:40;;;;;;;;;;;;;;;;;;1874579;28;7141;-64
2021/11/22 04:40:38;;;;;;;;;;;;;;;;;;1880080;28;7109;-64
2021/11/22 04:41:37;;;;;;;;;;;;;;;;;;1880169;28;7013;-65
2021/11/22 04:42:34;;;;;;;;;;;;;;;;;;1879295;28;7692;-65
2021/11/22 04:43:32;;;;;;;;;;;;;;;;;;1878131;28;7660;-65
2021/11/22 04:44:30;;;;;;;;;;;;;;;;;;1878028;28;7017;-65
2021/11/22 04:45:32;;;;;;;;;;;;;;;;;;1873959;28;7136;-65
2021/11/22 04:46:31;;;;;;;;;;;;;;;;;;1879148;28;7006;-64
2021/11/22 04:47:28;;;;;;;;;;;;;;;;;;1880167;28;7026;-65
2021/11/22 04:48:26;;;;;;;;;;;;;;;;;;1879426;28;8055;-65
2021/11/22 04:49:23;;;;;;;;;;;;;;;;;;1870307;28;7125;-65
2021/11/22 04:50:21;;;;;;;;;;;;;;;;;;1870153;28;7684;-64
2021/11/22 04:51:18;;;;;;;;;;;;;;;;;;1878887;28;7029;-65
2021/11/22 04:52:17;;;;;;;;;;;;;;;;;;1879840;28;7010;-65
2021/11/22 04:53:14;;;;;;;;;;;;;;;;;;1872582;28;7097;-65
2021/11/22 04:54:12;;;;;;;;;;;;;;;;;;1879950;28;7213;-65
2021/11/22 04:55:10;;;;;;;;;;;;;;;;;;1880172;28;7049;-65
2021/11/22 04:56:08;;;;;;;;;;;;;;;;;;1879874;28;7022;-65
2021/11/22 04:57:05;;;;;;;;;;;;;;;;;;1877864;28;7017;-64
2021/11/22 04:58:05;;;;;;;;;;;;;;;;;;1878333;28;7037;-65
2021/11/22 04:59:03;;;;;;;;;;;;;;;;;;1879446;28;7006;-65
2021/11/22 05:00:00;;;;;;;;;;;;;;;;;;1879391;28;7006;-65
2021/11/22 05:00:58;;;;;;;;;;;;;;;;;;1878789;28;7097;-65
2021/11/22 05:01:56;;;;;;;;;;;;;;;;;;1878210;28;7010;-65
2021/11/22 05:02:54;;;;;;;;;;;;;;;;;;1875169;28;7378;-65
2021/11/22 05:03:52;;;;;;;;;;;;;;;;;;1879990;28;7097;-65
2021/11/22 05:04:49;;;;;;;;;;;;;;;;;;1879722;28;7762;-65
2021/11/22 05:05:47;;;;;;;;;;;;;;;;;;1873444;28;7093;-65
2021/11/22 05:06:44;;;;;;;;;;;;;;;;;;1868918;28;7088;-65
2021/11/22 05:07:42;;;;;;;;;;;;;;;;;;1874307;28;7097;-65
2021/11/22 05:09:00;;;;;;;;;;;;;;;;;;1873113;28;7292;-66
2021/11/22 05:09:57;;;;;;;;;;;;;;;;;;1877527;28;7010;-65
2021/11/22 05:10:54;;;;;;;;;;;;;;;;;;1879287;28;7006;-65
2021/11/22 05:11:52;;;;;;;;;;;;;;;;;;1878830;28;8119;-65
2021/11/22 05:12:49;;;;;;;;;;;;;;;;;;1877646;28;7009;-65
2021/11/22 05:13:47;;;;;;;;;;;;;;;;;;1878691;28;7837;-66
2021/11/22 05:14:45;;;;;;;;;;;;;;;;;;1877108;28;7089;-65
2021/11/22 05:15:42;;;;;;;;;;;;;;;;;;1880106;28;7093;-65
2021/11/22 05:16:40;;;;;;;;;;;;;;;;;;1879533;28;7628;-64
2021/11/22 05:17:40;;;;;;;;;;;;;;;;;;1879301;28;7018;-65
2021/11/22 05:18:38;;;;;;;;;;;;;;;;;;1876864;28;7033;-65
2021/11/22 05:19:35;;;;;;;;;;;;;;;;;;1874317;28;7208;-65
2021/11/22 05:20:33;;;;;;;;;;;;;;;;;;1877459;28;7029;-64
2021/11/22 05:21:31;;;;;;;;;;;;;;;;;;1880097;28;7038;-65
2021/11/22 05:22:28;;;;;;;;;;;;;;;;;;1878502;28;7017;-65
2021/11/22 05:23:26;;;;;;;;;;;;;;;;;;1879424;28;8040;-65
2021/11/22 05:24:23;;;;;;;;;;;;;;;;;;1880534;28;7093;-65
2021/11/22 05:25:21;;;;;;;;;;;;;;;;;;1878651;28;7006;-63
2021/11/22 05:26:19;;;;;;;;;;;;;;;;;;1878823;28;7140;-66
2021/11/22 05:27:16;;;;;;;;;;;;;;;;;;1879022;28;7006;-65
2021/11/22 05:28:14;;;;;;;;;;;;;;;;;;1870920;28;7124;-66
2021/11/22 05:29:11;;;;;;;;;;;;;;;;;;1871092;28;7022;-65
2021/11/22 05:30:09;;;;;;;;;;;;;;;;;;1871496;28;7093;-65
2021/11/22 05:31:06;;;;;;;;;;;;;;;;;;1873449;28;7089;-65
2021/11/22 05:32:04;;;;;;;;;;;;;;;;;;1870602;28;7126;-65
2021/11/22 05:33:03;;;;;;;;;;;;;;;;;;1871936;28;7196;-64
2021/11/22 05:34:01;;;;;;;;;;;;;;;;;;1871664;28;7568;-64
2021/11/22 05:34:59;;;;;;;;;;;;;;;;;;1875781;28;7089;-65
2021/11/22 05:35:56;;;;;;;;;;;;;;;;;;1879372;28;7116;-65
2021/11/22 05:36:54;;;;;;;;;;;;;;;;;;1878349;28;7026;-65
2021/11/22 05:37:51;;;;;;;;;;;;;;;;;;1878933;28;7006;-65
2021/11/22 05:38:49;;;;;;;;;;;;;;;;;;1876950;28;7006;-65
2021/11/22 05:39:47;;;;;;;;;;;;;;;;;;1879897;28;7172;-66
2021/11/22 05:40:45;;;;;;;;;;;;;;;;;;1877267;28;7500;-65
2021/11/22 05:41:42;;;;;;;;;;;;;;;;;;1876144;28;8041;-65
2021/11/22 05:42:40;;;;;;;;;;;;;;;;;;1870052;28;7157;-64
2021/11/22 05:43:38;;;;;;;;;;;;;;;;;;1872380;28;7018;-65
2021/11/22 05:44:36;;;;;;;;;;;;;;;;;;1875884;28;7010;-65
2021/11/22 05:45:33;;;;;;;;;;;;;;;;;;1880347;28;7045;-66
2021/11/22 05:46:31;;;;;;;;;;;;;;;;;;1874622;28;7010;-65
2021/11/22 05:47:28;;;;;;;;;;;;;;;;;;1869044;28;7014;-65
2021/11/22 05:48:26;;;;;;;;;;;;;;;;;;1871835;28;7101;-65
2021/11/22 05:49:23;;;;;;;;;;;;;;;;;;1879843;28;7097;-65
2021/11/22 05:50:22;;;;;;;;;;;;;;;;;;1878957;28;7030;-65
2021/11/22 05:51:20;;;;;;;;;;;;;;;;;;1879135;28;7376;-65
2021/11/22 05:52:18;;;;;;;;;;;;;;;;;;1880147;28;7320;-65
2021/11/22 05:53:17;;;;;;;;;;;;;;;;;;1872197;28;7049;-65
2021/11/22 05:54:15;;;;;;;;;;;;;;;;;;1865084;29;8103;-66
2021/11/22 05:55:16;;;;;;;;;;;;;;;;;;1863278;28;7021;-65
2021/11/22 05:56:16;;;;;;;;;;;;;;;;;;1864314;29;7329;-65
2021/11/22 05:57:14;;;;;;;;;;;;;;;;;;1871963;28;7042;-65
2021/11/22 05:58:13;;;;;;;;;;;;;;;;;;1872096;28;7013;-65
2021/11/22 05:59:16;;;;;;;;;;;;;;;;;;1871103;28;7312;-64
2021/11/22 06:00:14;;;;;;;;;;;;;;;;;;1871624;28;7046;-66
2021/11/22 06:01:13;;;;;;;;;;;;;;;;;;1878410;28;7096;-65
2021/11/22 06:02:12;;;;;;;;;;;;;;;;;;1876698;28;7112;-65
2021/11/22 06:03:10;;;;;;;;;;;;;;;;;;1878679;28;7416;-65
2021/11/22 06:04:07;;;;;;;;;;;;;;;;;;1880171;28;7014;-65
2021/11/22 06:05:09;;;;;;;;;;;;;;;;;;1876935;28;7010;-65
2021/11/22 06:06:07;;;;;;;;;;;;;;;;;;1872310;28;7129;-65
2021/11/22 06:07:04;;;;;;;;;;;;;;;;;;1872094;28;7062;-66
2021/11/22 06:08:03;;;;;;;;;;;;;;;;;;1869242;28;7122;-65
2021/11/22 06:09:00;;;;;;;;;;;;;;;;;;1870750;28;7804;-64
2021/11/22 06:09:58;;;;;;;;;;;;;;;;;;1868836;28;7006;-67
2021/11/22 06:10:55;;;;;;;;;;;;;;;;;;1869020;28;7050;-65
2021/11/22 06:11:53;;;;;;;;;;;;;;;;;;1872151;28;7113;-65
2021/11/22 06:12:50;;;;;;;;;;;;;;;;;;1875232;28;7058;-65
2021/11/22 06:13:48;;;;;;;;;;;;;;;;;;1877383;28;7006;-65
2021/11/22 06:14:45;;;;;;;;;;;;;;;;;;1877936;28;7046;-66
2021/11/22 06:15:43;;;;;;;;;;;;;;;;;;1871992;28;7097;-65
2021/11/22 06:16:41;;;;;;;;;;;;;;;;;;1870877;28;7010;-64
2021/11/22 06:17:38;;;;;;;;;;;;;;;;;;1872067;28;7010;-65
2021/11/22 06:18:36;;;;;;;;;;;;;;;;;;1877693;28;8116;-64
2021/11/22 06:19:33;;;;;;;;;;;;;;;;;;1879858;28;7124;-66
2021/11/22 06:20:31;;;;;;;;;;;;;;;;;;1878517;28;8624;-65
2021/11/22 06:21:28;;;;;;;;;;;;;;;;;;1869827;28;7363;-65
2021/11/22 06:22:26;;;;;;;;;;;;;;;;;;1872090;28;7109;-65
2021/11/22 06:23:23;;;;;;;;;;;;;;;;;;1870214;28;7167;-65
2021/11/22 06:24:21;;;;;;;;;;;;;;;;;;1874108;28;7129;-65
2021/11/22 06:25:19;;;;;;;;;;;;;;;;;;1875351;28;7006;-65
2021/11/22 06:26:18;;;;;;;;;;;;;;;;;;1875948;28;7093;-65
2021/11/22 06:27:16;;;;;;;;;;;;;;;;;;1875177;28;7105;-65
2021/11/22 06:28:13;;;;;;;;;;;;;;;;;;1875292;28;7160;-66
2021/11/22 06:29:16;;;;;;;;;;;;;;;;;;1875866;28;7006;-65
2021/11/22 06:30:14;;;;;;;;;;;;;;;;;;1875982;28;7002;-65
2021/11/22 06:31:11;;;;;;;;;;;;;;;;;;1875468;28;7177;-65
2021/11/22 06:32:11;;;;;;;;;;;;;;;;;;1875386;28;7045;-65
2021/11/22 06:33:08;;;;;;;;;;;;;;;;;;1873922;28;7018;-66
2021/11/22 06:34:06;;;;;;;;;;;;;;;;;;1875617;28;7064;-65
2021/11/22 06:35:04;;;;;;;;;;;;;;;;;;1876074;28;7025;-65
2021/11/22 06:36:02;;;;;;;;;;;;;;;;;;1875209;28;7109;-66
2021/11/22 06:37:00;;;;;;;;;;;;;;;;;;1875820;29;7297;-65
2021/11/22 06:37:58;;;;;;;;;;;;;;;;;;1875485;28;7010;-65
2021/11/22 06:38:55;;;;;;;;;;;;;;;;;;1874862;28;7089;-65
2021/11/22 06:39:53;;;;;;;;;;;;;;;;;;1874901;28;7006;-66
2021/11/22 06:40:51;;;;;;;;;;;;;;;;;;1871930;28;8025;-65
2021/11/22 06:41:49;;;;;;;;;;;;;;;;;;1875720;28;7026;-65
2021/11/22 06:42:47;;;;;;;;;;;;;;;;;;1875451;28;7109;-65
2021/11/22 06:43:44;;;;;;;;;;;;;;;;;;1876217;28;7092;-65